Time;durP1;ratioP1;P1;durP2;ratioP2;P2;SDS_P1;SDS_P2;PMS_P1;PMS_P2;Temp;Humidity;BMP_temperature;BMP_pressure;BME280_temperature;BME280_humidity;BME280_pressure;Samples;Min_cycle;Max_cycle;Signal;HPM_P1;HPM_P2
2021/07/05 00:01:53;;;;;;;9.07;7.37;;;22.70;73.20;;;;;;5079629;28;20047;-71
2021/07/05 00:04:38;;;;;;;8.70;7.27;;;22.60;73.40;;;;;;5091936;28;20051;-71
2021/07/05 00:07:22;;;;;;;9.00;7.03;;;22.60;73.80;;;;;;5079138;28;20332;-71
2021/07/05 00:10:07;;;;;;;8.20;6.85;;;22.60;74.10;;;;;;5073148;28;20043;-71
2021/07/05 00:12:52;;;;;;;9.13;7.53;;;22.50;74.30;;;;;;5071757;28;20047;-71
2021/07/05 00:15:36;;;;;;;8.55;6.70;;;22.50;74.70;;;;;;5090144;28;20055;-71
2021/07/05 00:18:21;;;;;;;9.07;7.55;;;22.50;75.10;;;;;;5053454;28;20031;-72
2021/07/05 00:21:05;;;;;;;9.35;7.28;;;22.40;75.10;;;;;;5054708;28;20039;-73
2021/07/05 00:23:49;;;;;;;9.18;8.10;;;22.40;75.50;;;;;;5072959;28;20124;-73
2021/07/05 00:26:33;;;;;;;8.85;7.50;;;22.40;75.80;;;;;;5077095;28;20078;-72
2021/07/05 00:29:18;;;;;;;8.77;7.63;;;22.30;76.10;;;;;;5084836;28;20036;-73
2021/07/05 00:32:02;;;;;;;7.80;7.10;;;22.20;76.50;;;;;;5075271;28;20113;-73
2021/07/05 00:34:47;;;;;;;9.77;8.75;;;22.20;76.60;;;;;;5053002;28;20036;-73
2021/07/05 00:37:31;;;;;;;8.70;7.80;;;22.20;77.00;;;;;;5067100;28;20114;-71
2021/07/05 00:40:16;;;;;;;11.15;8.15;;;22.10;77.30;;;;;;5072519;28;20423;-71
2021/07/05 00:43:01;;;;;;;9.32;8.25;;;22.10;77.60;;;;;;5067418;28;20598;-72
2021/07/05 00:45:45;;;;;;;9.90;8.52;;;22.00;77.90;;;;;;5071471;28;20038;-71
2021/07/05 00:48:29;;;;;;;10.67;8.33;;;22.00;78.30;;;;;;5052668;28;20032;-72
2021/07/05 00:51:13;;;;;;;12.37;8.60;;;22.00;78.50;;;;;;5054919;28;20089;-71
2021/07/05 00:53:57;;;;;;;10.23;8.57;;;21.90;78.60;;;;;;5072500;28;20361;-72
2021/07/05 00:56:42;;;;;;;9.60;7.63;;;21.90;79.00;;;;;;5071378;28;20035;-71
2021/07/05 00:59:27;;;;;;;9.23;8.23;;;21.90;79.00;;;;;;5072526;28;20465;-72
2021/07/05 01:02:11;;;;;;;11.13;9.27;;;21.80;79.40;;;;;;5081511;28;20046;-71
2021/07/05 01:04:56;;;;;;;9.73;8.70;;;21.80;79.70;;;;;;5092379;28;20063;-71
2021/07/05 01:07:41;;;;;;;10.27;8.25;;;21.80;79.90;;;;;;5089636;28;20161;-70
2021/07/05 01:10:26;;;;;;;9.77;8.48;;;21.70;80.10;;;;;;5084467;28;20767;-70
2021/07/05 01:13:11;;;;;;;9.80;8.80;;;21.70;80.50;;;;;;5071807;28;20176;-71
2021/07/05 01:15:55;;;;;;;9.98;8.98;;;21.70;80.90;;;;;;5069181;28;20468;-71
2021/07/05 01:18:39;;;;;;;10.85;8.65;;;21.60;81.10;;;;;;5072198;28;20089;-71
2021/07/05 01:21:23;;;;;;;10.38;9.25;;;21.60;81.40;;;;;;5066165;28;20086;-71
2021/07/05 01:24:07;;;;;;;10.67;9.57;;;21.60;81.70;;;;;;5051694;28;20090;-72
2021/07/05 01:26:51;;;;;;;9.90;8.85;;;21.50;81.90;;;;;;5059805;28;20038;-72
2021/07/05 01:29:35;;;;;;;12.23;9.87;;;21.50;82.00;;;;;;5067058;28;20040;-72
2021/07/05 01:32:19;;;;;;;10.40;9.30;;;21.50;82.30;;;;;;5051589;28;20445;-72
2021/07/05 01:35:06;;;;;;;13.47;10.97;;;21.40;82.40;;;;;;5074470;28;20335;-73
2021/07/05 01:37:50;;;;;;;11.02;9.82;;;21.40;82.70;;;;;;5071156;28;20050;-73
2021/07/05 01:40:36;;;;;;;12.43;11.13;;;21.40;82.90;;;;;;5071798;28;20109;-73
2021/07/05 01:43:21;;;;;;;12.18;9.73;;;21.30;83.00;;;;;;5075544;28;20066;-73
2021/07/05 01:46:05;;;;;;;10.45;9.35;;;21.30;83.30;;;;;;5091650;28;20039;-73
2021/07/05 01:48:49;;;;;;;12.45;9.70;;;21.30;83.40;;;;;;5086723;28;20055;-73
2021/07/05 01:51:33;;;;;;;10.83;9.47;;;21.20;83.50;;;;;;5091984;28;20042;-73
2021/07/05 01:54:18;;;;;;;10.50;9.43;;;21.20;83.80;;;;;;5076055;28;20340;-73
2021/07/05 01:57:03;;;;;;;11.32;9.43;;;21.20;84.10;;;;;;5071423;28;20035;-73
2021/07/05 01:59:47;;;;;;;11.32;10.13;;;21.10;84.30;;;;;;5070833;28;20036;-73
2021/07/05 02:02:31;;;;;;;14.65;9.57;;;21.10;84.50;;;;;;5070416;28;20189;-73
2021/07/05 02:05:17;;;;;;;10.25;9.15;;;21.10;84.70;;;;;;5051578;28;20459;-73
2021/07/05 02:08:01;;;;;;;14.13;10.23;;;21.10;85.00;;;;;;5057841;28;20515;-73
2021/07/05 02:10:46;;;;;;;11.00;9.90;;;21.10;85.30;;;;;;5091837;28;20085;-72
2021/07/05 02:13:33;;;;;;;10.63;9.52;;;21.00;85.50;;;;;;5089614;28;20093;-71
2021/07/05 02:16:17;;;;;;;11.25;10.02;;;21.00;85.70;;;;;;5071971;28;20031;-71
2021/07/05 02:19:03;;;;;;;11.37;9.50;;;21.00;85.80;;;;;;5058878;28;20108;-71
2021/07/05 02:21:48;;;;;;;10.73;9.63;;;21.00;86.00;;;;;;5051199;28;20320;-72
2021/07/05 02:24:32;;;;;;;11.75;9.77;;;20.90;86.10;;;;;;5067591;28;20569;-72
2021/07/05 02:27:16;;;;;;;11.27;10.07;;;20.90;86.40;;;;;;5071398;28;20128;-72
2021/07/05 02:30:03;;;;;;;12.07;10.83;;;20.90;86.70;;;;;;5051254;28;20116;-72
2021/07/05 02:32:48;;;;;;;12.45;11.15;;;20.90;86.90;;;;;;5052861;28;20116;-72
2021/07/05 02:35:34;;;;;;;12.38;10.85;;;20.80;87.10;;;;;;5071792;28;20039;-71
2021/07/05 02:38:21;;;;;;;12.25;10.80;;;20.80;87.20;;;;;;5064727;28;20044;-71
2021/07/05 02:41:05;;;;;;;14.52;11.05;;;20.80;87.60;;;;;;5050556;28;20040;-71
2021/07/05 02:43:50;;;;;;;13.37;11.57;;;20.80;87.80;;;;;;5075609;28;20034;-70
2021/07/05 02:46:34;;;;;;;12.40;10.63;;;20.70;87.90;;;;;;5095141;28;20331;-70
2021/07/05 02:49:18;;;;;;;11.67;10.50;;;20.70;88.00;;;;;;5078921;28;20119;-71
2021/07/05 02:52:03;;;;;;;10.90;9.80;;;20.70;88.40;;;;;;5074689;28;20128;-70
2021/07/05 02:54:47;;;;;;;12.23;10.75;;;20.60;88.80;;;;;;5074068;28;20555;-71
2021/07/05 02:57:31;;;;;;;12.48;11.07;;;20.60;89.10;;;;;;5074194;28;20507;-70
2021/07/05 03:00:19;;;;;;;11.60;10.40;;;20.60;89.20;;;;;;5054722;28;20040;-70
2021/07/05 03:03:04;;;;;;;12.60;11.20;;;20.60;89.50;;;;;;5060387;28;20337;-70
2021/07/05 03:05:48;;;;;;;12.60;10.20;;;20.60;89.60;;;;;;5094508;28;20055;-71
2021/07/05 03:08:33;;;;;;;11.98;10.77;;;20.60;89.80;;;;;;5090182;28;20125;-72
2021/07/05 03:11:18;;;;;;;14.68;12.75;;;20.60;90.00;;;;;;5093160;28;20403;-71
2021/07/05 03:14:02;;;;;;;12.45;10.50;;;20.60;90.10;;;;;;5090949;28;20466;-71
2021/07/05 03:16:46;;;;;;;13.80;11.95;;;20.60;90.20;;;;;;5084147;28;20094;-71
2021/07/05 03:19:30;;;;;;;12.60;10.93;;;20.60;90.30;;;;;;5072419;28;20035;-71
2021/07/05 03:22:16;;;;;;;14.60;12.10;;;20.60;90.30;;;;;;5074396;28;20044;-71
2021/07/05 03:25:02;;;;;;;17.67;13.00;;;20.60;90.40;;;;;;5092861;28;20093;-71
2021/07/05 03:27:47;;;;;;;11.75;10.45;;;20.60;90.50;;;;;;5073050;28;20032;-71
2021/07/05 03:30:33;;;;;;;14.82;12.15;;;20.70;90.60;;;;;;5060320;28;20036;-71
2021/07/05 03:33:17;;;;;;;13.90;12.23;;;20.70;90.60;;;;;;5064730;28;20047;-71
2021/07/05 03:36:02;;;;;;;13.52;12.13;;;20.70;90.70;;;;;;5076622;28;20123;-70
2021/07/05 03:38:46;;;;;;;13.93;11.75;;;20.70;90.70;;;;;;5082093;28;20039;-71
2021/07/05 03:41:31;;;;;;;14.73;12.55;;;20.70;90.70;;;;;;5097764;28;20042;-71
2021/07/05 03:44:15;;;;;;;15.93;11.82;;;20.80;90.80;;;;;;5097168;28;20080;-71
2021/07/05 03:46:59;;;;;;;13.45;11.82;;;20.80;90.80;;;;;;5103864;28;20054;-72
2021/07/05 03:49:43;;;;;;;12.88;11.57;;;20.90;90.80;;;;;;5082014;28;20108;-72
2021/07/05 03:52:28;;;;;;;14.00;10.50;;;20.90;90.90;;;;;;5079708;28;20077;-73
2021/07/05 03:55:15;;;;;;;14.15;11.10;;;21.00;91.00;;;;;;5081197;28;20075;-72
2021/07/05 03:58:00;;;;;;;12.80;11.35;;;21.00;90.90;;;;;;5079930;28;20035;-75
2021/07/05 04:00:44;;;;;;;12.15;10.88;;;21.00;91.10;;;;;;5082575;28;20130;-74
2021/07/05 04:03:29;;;;;;;12.25;10.98;;;21.10;90.90;;;;;;5081251;28;20034;-74
2021/07/05 04:06:13;;;;;;;12.47;11.20;;;21.10;90.70;;;;;;5095578;28;20043;-74
2021/07/05 04:08:59;;;;;;;13.45;12.02;;;21.20;90.80;;;;;;5098826;28;20031;-75
2021/07/05 04:11:43;;;;;;;12.75;10.10;;;21.30;90.80;;;;;;5101010;28;20043;-75
2021/07/05 04:14:27;;;;;;;13.82;11.40;;;21.30;90.70;;;;;;5083082;28;20169;-75
2021/07/05 04:17:12;;;;;;;14.35;11.57;;;21.30;90.60;;;;;;5082815;28;20531;-74
2021/07/05 04:19:56;;;;;;;12.20;10.95;;;21.40;90.60;;;;;;5092314;28;20056;-75
2021/07/05 04:22:40;;;;;;;12.80;10.20;;;21.40;90.70;;;;;;5090561;28;20410;-75
2021/07/05 04:25:24;;;;;;;13.52;11.00;;;21.40;90.50;;;;;;5052576;28;20373;-75
2021/07/05 04:28:09;;;;;;;11.60;10.52;;;21.50;90.40;;;;;;5059887;28;20516;-75
2021/07/05 04:30:53;;;;;;;12.93;11.43;;;21.60;90.50;;;;;;5077337;28;20526;-74
2021/07/05 04:33:37;;;;;;;13.90;12.00;;;21.50;90.10;;;;;;5082529;28;20044;-73
2021/07/05 04:36:21;;;;;;;14.97;11.40;;;21.60;90.30;;;;;;5089987;28;20107;-73
2021/07/05 04:39:07;;;;;;;13.65;10.95;;;21.60;90.00;;;;;;5089423;28;20281;-72
2021/07/05 04:41:52;;;;;;;12.52;10.85;;;21.60;89.90;;;;;;5092452;28;20030;-73
2021/07/05 04:44:36;;;;;;;11.85;10.60;;;21.70;89.70;;;;;;5071270;28;20051;-72
2021/07/05 04:47:20;;;;;;;15.30;11.45;;;21.70;89.90;;;;;;5069284;28;20115;-72
2021/07/05 04:50:06;;;;;;;12.33;11.03;;;21.70;89.60;;;;;;5075686;28;20036;-73
2021/07/05 04:52:50;;;;;;;12.70;11.13;;;21.70;89.60;;;;;;5089904;28;20064;-72
2021/07/05 04:55:34;;;;;;;13.40;11.15;;;21.80;89.80;;;;;;5092509;28;20471;-72
2021/07/05 04:58:18;;;;;;;13.93;11.57;;;21.80;89.60;;;;;;5084986;28;20051;-72
2021/07/05 05:01:02;;;;;;;14.80;11.47;;;21.80;89.70;;;;;;5068193;28;20032;-72
2021/07/05 05:03:46;;;;;;;13.40;11.95;;;21.80;89.30;;;;;;5070317;28;20043;-72
2021/07/05 05:06:31;;;;;;;12.07;10.80;;;21.90;89.10;;;;;;5091672;28;20131;-72
2021/07/05 05:09:15;;;;;;;12.57;11.27;;;21.90;88.70;;;;;;5076602;28;20047;-72
2021/07/05 05:12:00;;;;;;;13.48;11.60;;;22.00;88.70;;;;;;5071850;28;20035;-72
2021/07/05 05:14:44;;;;;;;11.98;10.73;;;22.00;89.20;;;;;;5069828;28;20047;-71
2021/07/05 05:17:28;;;;;;;12.37;11.07;;;22.10;89.00;;;;;;5051914;28;20052;-73
2021/07/05 05:20:14;;;;;;;11.80;10.50;;;22.10;89.10;;;;;;5051965;28;20120;-73
2021/07/05 05:22:58;;;;;;;13.05;10.95;;;22.20;89.10;;;;;;5056042;28;20075;-73
2021/07/05 05:25:42;;;;;;;11.90;10.60;;;22.30;88.80;;;;;;5091572;28;20140;-73
2021/07/05 05:28:27;;;;;;;12.98;11.18;;;22.40;89.40;;;;;;5083027;28;20086;-73
2021/07/05 05:31:11;;;;;;;12.57;11.27;;;22.50;89.10;;;;;;5071811;28;20081;-73
2021/07/05 05:33:56;;;;;;;11.85;10.55;;;22.60;88.80;;;;;;5080974;28;20054;-73
2021/07/05 05:36:41;;;;;;;13.50;11.23;;;22.70;88.80;;;;;;5091298;28;20032;-72
2021/07/05 05:39:27;;;;;;;13.25;11.27;;;22.90;88.90;;;;;;5072770;28;20088;-72
2021/07/05 05:42:13;;;;;;;12.48;11.18;;;22.90;88.80;;;;;;5070580;28;20060;-72
2021/07/05 05:44:59;;;;;;;13.77;11.15;;;23.00;88.50;;;;;;5091907;28;20031;-70
2021/07/05 05:47:45;;;;;;;11.80;10.63;;;23.10;89.10;;;;;;5087571;28;20051;-72
2021/07/05 05:50:31;;;;;;;12.50;11.20;;;23.20;88.70;;;;;;5071073;28;20021;-72
2021/07/05 05:53:17;;;;;;;12.38;10.05;;;23.20;88.50;;;;;;5069347;28;20025;-72
2021/07/05 05:56:04;;;;;;;12.07;10.30;;;23.30;87.60;;;;;;5071253;28;20029;-73
2021/07/05 05:58:50;;;;;;;14.07;10.35;;;23.40;87.60;;;;;;5077187;28;20036;-73
2021/07/05 06:01:38;;;;;;;11.90;9.68;;;23.50;87.10;;;;;;5069300;28;20047;-71
2021/07/05 06:04:24;;;;;;;11.10;10.00;;;23.50;86.00;;;;;;5047038;28;20489;-72
2021/07/05 06:07:10;;;;;;;11.18;9.90;;;23.60;86.40;;;;;;5068368;28;20101;-74
2021/07/05 06:09:55;;;;;;;11.57;9.85;;;23.60;86.10;;;;;;5077827;28;20032;-71
2021/07/05 06:12:42;;;;;;;11.70;9.23;;;23.70;85.00;;;;;;5065030;28;20020;-70
2021/07/05 06:15:28;;;;;;;14.88;9.50;;;23.80;85.00;;;;;;5070325;28;20161;-72
2021/07/05 06:18:14;;;;;;;10.77;9.52;;;23.80;84.30;;;;;;5076044;28;20028;-71
2021/07/05 06:21:00;;;;;;;10.27;9.20;;;23.90;85.00;;;;;;5061463;28;20090;-71
2021/07/05 06:23:46;;;;;;;9.38;8.40;;;23.90;84.10;;;;;;5067700;28;20032;-71
2021/07/05 06:26:32;;;;;;;8.80;7.72;;;24.00;83.50;;;;;;5071504;28;20442;-70
2021/07/05 06:29:18;;;;;;;11.13;7.93;;;24.10;83.50;;;;;;5071839;28;20392;-70
2021/07/05 06:32:04;;;;;;;12.52;8.80;;;24.10;83.30;;;;;;5069240;28;20574;-70
2021/07/05 06:34:50;;;;;;;10.02;7.28;;;24.20;83.50;;;;;;5069856;28;20025;-71
2021/07/05 06:37:36;;;;;;;9.38;8.35;;;24.30;83.00;;;;;;5079179;28;20043;-69
2021/07/05 06:40:23;;;;;;;9.98;7.97;;;24.40;82.80;;;;;;5068333;28;20499;-70
2021/07/05 06:43:09;;;;;;;11.02;7.55;;;24.50;81.90;;;;;;5076969;28;21897;-69
2021/07/05 06:45:55;;;;;;;8.70;7.80;;;24.60;82.60;;;;;;5076311;28;20473;-71
2021/07/05 06:48:41;;;;;;;9.00;7.00;;;24.70;82.30;;;;;;5064318;28;20029;-70
2021/07/05 06:51:27;;;;;;;10.18;7.53;;;24.80;82.20;;;;;;5076707;28;20081;-71
2021/07/05 06:54:13;;;;;;;8.52;6.53;;;24.90;81.70;;;;;;5073014;28;20032;-70
2021/07/05 06:57:00;;;;;;;8.82;6.78;;;24.90;80.80;;;;;;5077907;28;20055;-70
2021/07/05 06:59:46;;;;;;;9.07;7.30;;;25.00;80.10;;;;;;5074534;28;20028;-71
2021/07/05 07:02:33;;;;;;;8.10;7.00;;;25.10;80.90;;;;;;5072508;28;20034;-71
2021/07/05 07:05:20;;;;;;;8.65;7.30;;;25.20;80.70;;;;;;5065507;28;20060;-70
2021/07/05 07:08:06;;;;;;;8.38;6.60;;;25.20;80.80;;;;;;5075822;28;20021;-70
2021/07/05 07:10:52;;;;;;;9.75;6.60;;;25.20;80.50;;;;;;5064764;28;20036;-70
2021/07/05 07:13:39;;;;;;;7.60;6.85;;;25.30;80.50;;;;;;5073669;28;20073;-70
2021/07/05 07:16:28;;;;;;;7.22;6.50;;;25.30;80.20;;;;;;5068741;28;20083;-70
2021/07/05 07:19:16;;;;;;;7.63;6.40;;;25.30;80.00;;;;;;5085864;28;20396;-69
2021/07/05 07:22:04;;;;;;;7.78;6.53;;;25.20;79.40;;;;;;5072919;28;20062;-69
2021/07/05 07:24:50;;;;;;;8.88;6.30;;;25.10;79.10;;;;;;5070655;28;20058;-70
2021/07/05 07:27:36;;;;;;;6.57;5.80;;;25.10;79.30;;;;;;5074756;28;20476;-73
2021/07/05 07:30:22;;;;;;;6.93;6.00;;;25.10;79.40;;;;;;5060839;28;20033;-70
2021/07/05 07:33:07;;;;;;;8.50;6.40;;;25.00;79.90;;;;;;5058103;28;20435;-69
2021/07/05 07:35:53;;;;;;;7.35;6.13;;;24.90;79.90;;;;;;5071394;28;20043;-70
2021/07/05 07:38:45;;;;;;;7.53;5.82;;;24.80;80.70;;;;;;5066936;28;20404;-70
2021/07/05 07:41:31;;;;;;;9.80;6.05;;;24.70;80.90;;;;;;5085450;28;20125;-72
2021/07/05 07:44:15;;;;;;;6.60;5.65;;;24.60;81.30;;;;;;5071000;28;20039;-70
2021/07/05 07:47:01;;;;;;;7.32;6.07;;;24.60;81.60;;;;;;5079093;28;20043;-69
2021/07/05 07:49:45;;;;;;;7.85;5.45;;;24.60;81.70;;;;;;5069227;28;20047;-69
2021/07/05 07:52:30;;;;;;;6.70;5.60;;;24.50;81.80;;;;;;5074551;28;20085;-69
2021/07/05 07:55:15;;;;;;;6.70;4.85;;;24.40;82.00;;;;;;5085283;28;20065;-69
2021/07/05 07:57:59;;;;;;;8.10;5.07;;;24.40;82.30;;;;;;5082420;28;20043;-70
2021/07/05 08:00:43;;;;;;;7.32;5.57;;;24.40;82.60;;;;;;5075605;28;20400;-69
2021/07/05 08:03:28;;;;;;;5.85;5.15;;;24.30;83.20;;;;;;5063940;28;20573;-70
2021/07/05 08:06:12;;;;;;;7.40;5.45;;;24.20;84.00;;;;;;5070277;28;20091;-69
2021/07/05 08:08:56;;;;;;;7.45;5.45;;;24.20;85.00;;;;;;5080911;28;20458;-69
2021/07/05 08:11:40;;;;;;;5.47;4.93;;;24.00;85.20;;;;;;5076346;28;20498;-69
2021/07/05 08:14:24;;;;;;;8.18;5.50;;;23.90;85.80;;;;;;5068108;28;20697;-68
2021/07/05 08:17:08;;;;;;;7.00;5.25;;;23.90;86.60;;;;;;5080267;28;20031;-67
2021/07/05 08:19:52;;;;;;;10.82;5.10;;;23.80;86.90;;;;;;5076887;28;20039;-67
2021/07/05 08:22:36;;;;;;;7.57;5.40;;;23.70;87.30;;;;;;5081960;28;20039;-67
2021/07/05 08:25:21;;;;;;;;;;;23.70;87.60;;;;;;5078992;28;20079;-67
2021/07/05 08:28:06;;;;;;;6.57;4.80;;;23.60;87.00;;;;;;5071304;28;19964;-67
2021/07/05 08:30:54;;;;;;;6.25;4.43;;;23.50;88.10;;;;;;5071629;28;20051;-67
2021/07/05 08:33:38;;;;;;;5.30;4.05;;;23.30;88.30;;;;;;5070163;28;20498;-67
2021/07/05 08:36:22;;;;;;;7.50;4.50;;;23.30;88.40;;;;;;5067728;28;20085;-66
2021/07/05 08:39:10;;;;;;;6.35;4.22;;;23.20;88.90;;;;;;5067939;28;20109;-68
2021/07/05 08:41:54;;;;;;;6.32;4.63;;;23.10;89.60;;;;;;5080636;28;20114;-68
2021/07/05 08:44:40;;;;;;;6.82;4.78;;;23.00;90.10;;;;;;5076229;28;20039;-68
2021/07/05 08:47:30;;;;;;;6.45;4.55;;;22.90;90.50;;;;;;5077258;28;20050;-67
2021/07/05 08:50:15;;;;;;;6.50;4.47;;;22.90;90.50;;;;;;5074396;28;20085;-66
2021/07/05 08:52:59;;;;;;;6.07;4.68;;;22.80;90.80;;;;;;5071863;28;20097;-67
2021/07/05 08:55:43;;;;;;;6.03;5.00;;;22.80;90.90;;;;;;5070209;28;20039;-67
2021/07/05 08:58:27;;;;;;;8.82;5.85;;;22.70;91.10;;;;;;5067722;28;20495;-67
2021/07/05 09:01:12;;;;;;;8.05;5.80;;;22.70;91.20;;;;;;5069647;28;20077;-66
2021/07/05 09:03:56;;;;;;;7.05;5.97;;;22.70;91.40;;;;;;5077129;28;20042;-66
2021/07/05 09:07:04;;;;;;;8.40;6.40;;;22.60;91.60;;;;;;5068118;28;20059;-66
2021/07/05 09:10:00;;;;;;;6.85;5.40;;;22.60;91.80;;;;;;5078902;28;20042;-66
2021/07/05 09:12:44;;;;;;;7.68;6.13;;;22.60;92.20;;;;;;5074951;28;20035;-67
2021/07/05 09:15:36;;;;;;;9.73;6.50;;;22.60;92.40;;;;;;5075403;28;20039;-67
2021/07/05 09:18:34;;;;;;;6.80;5.72;;;22.50;92.60;;;;;;5076748;28;20177;-67
2021/07/05 09:21:28;;;;;;;8.02;5.85;;;22.60;93.00;;;;;;5070299;28;20035;-67
2021/07/05 09:24:13;;;;;;;8.63;6.18;;;22.60;93.10;;;;;;5062991;28;20027;-67
2021/07/05 09:27:05;;;;;;;9.60;6.15;;;22.70;93.30;;;;;;5066319;28;20545;-67
2021/07/05 09:29:49;;;;;;;9.90;6.35;;;22.70;93.30;;;;;;5074060;28;20072;-67
2021/07/05 09:32:26;;;;;;;7.63;6.53;;;22.70;93.30;;;;;;5059932;28;20469;-67
2021/07/05 09:35:14;;;;;;;9.93;6.97;;;22.80;93.50;;;;;;5071400;28;20023;-67
2021/07/05 09:38:01;;;;;;;10.77;6.82;;;22.80;93.60;;;;;;5073204;28;20089;-67
2021/07/05 09:40:45;;;;;;;8.43;6.72;;;22.90;93.70;;;;;;5075083;28;20290;-67
2021/07/05 09:43:29;;;;;;;9.23;7.70;;;22.90;93.80;;;;;;5069808;28;20522;-66
2021/07/05 09:46:13;;;;;;;10.13;7.55;;;22.90;93.80;;;;;;5057677;28;20277;-67
2021/07/05 09:48:45;;;;;;;8.90;7.60;;;22.90;93.80;;;;;;5081960;28;20016;-68
2021/07/05 09:51:29;;;;;;;11.07;8.38;;;22.80;94.00;;;;;;5071097;28;20791;-68
2021/07/05 09:53:55;;;;;;;9.57;7.90;;;22.80;94.10;;;;;;5064995;28;20044;-69
2021/07/05 09:56:23;;;;;;;9.20;7.82;;;22.90;94.10;;;;;;5066234;28;20027;-67
2021/07/05 09:58:51;;;;;;;9.00;7.63;;;22.80;94.20;;;;;;5065080;28;20036;-67
2021/07/05 10:01:35;;;;;;;11.05;8.40;;;22.80;94.20;;;;;;5069383;28;20107;-68
2021/07/05 10:06:51;;;;;;;9.30;7.10;;;22.90;94.20;;;;;;5069137;27;20931;-66
2021/07/05 10:09:30;;;;;;;10.68;7.57;;;22.90;94.20;;;;;;5062532;28;20024;-66
2021/07/05 10:12:21;;;;;;;9.85;7.40;;;22.90;94.20;;;;;;5059297;28;20017;-69
2021/07/05 10:15:03;;;;;;;8.63;6.80;;;22.90;94.30;;;;;;5064788;28;20131;-69
2021/07/05 10:17:31;;;;;;;10.77;7.07;;;23.00;94.50;;;;;;5066972;28;20089;-70
2021/07/05 10:19:56;;;;;;;10.90;7.28;;;23.00;94.80;;;;;;5066182;28;20039;-69
2021/07/05 10:22:22;;;;;;;9.05;8.02;;;23.10;94.90;;;;;;5062422;28;20024;-69
2021/07/05 10:24:49;;;;;;;8.25;7.38;;;23.20;95.00;;;;;;5066508;28;20487;-69
2021/07/05 10:27:17;;;;;;;10.15;7.07;;;23.20;94.90;;;;;;5067015;28;20036;-70
2021/07/05 10:29:46;;;;;;;8.57;7.10;;;23.30;94.80;;;;;;5062875;28;20029;-70
2021/07/05 10:32:11;;;;;;;9.88;6.90;;;23.40;95.00;;;;;;5062767;28;20187;-70
2021/07/05 10:34:38;;;;;;;8.32;6.85;;;23.50;94.90;;;;;;5062180;28;20536;-70
2021/07/05 10:37:09;;;;;;;9.60;6.20;;;23.50;94.90;;;;;;5066343;28;20032;-70
2021/07/05 10:39:36;;;;;;;7.63;6.45;;;23.60;94.80;;;;;;5062413;28;20017;-70
2021/07/05 10:42:02;;;;;;;7.28;6.05;;;23.70;94.70;;;;;;5063973;28;20052;-70
2021/07/05 10:44:41;;;;;;;7.57;5.82;;;23.80;94.70;;;;;;5065801;28;20021;-70
2021/07/05 10:47:07;;;;;;;6.57;5.68;;;23.80;94.40;;;;;;5061981;28;20025;-70
2021/07/05 10:49:53;;;;;;;8.85;6.25;;;23.90;93.90;;;;;;5060159;28;20098;-70
2021/07/05 10:52:50;;;;;;;7.97;5.60;;;23.90;94.10;;;;;;5075338;28;20040;-69
2021/07/05 10:55:38;;;;;;;9.20;6.13;;;23.90;94.20;;;;;;5070472;28;20117;-69
2021/07/05 10:58:30;;;;;;;10.15;6.25;;;23.90;94.10;;;;;;5061826;28;20075;-60
2021/07/05 11:01:16;;;;;;;8.57;6.00;;;24.00;94.10;;;;;;5065874;28;20055;-70
2021/07/05 11:04:28;;;;;;;7.70;5.97;;;24.00;94.20;;;;;;5058100;28;20183;-70
2021/07/05 11:07:16;;;;;;;8.32;6.60;;;24.10;94.00;;;;;;5056231;28;20539;-69
2021/07/05 11:10:00;;;;;;;10.13;6.95;;;24.00;93.90;;;;;;5065839;28;20569;-70
2021/07/05 11:12:28;;;;;;;8.55;7.03;;;24.00;94.00;;;;;;5064987;28;20033;-70
2021/07/05 11:14:54;;;;;;;8.30;7.50;;;23.90;93.80;;;;;;5065611;28;20024;-70
2021/07/05 11:17:21;;;;;;;9.00;6.13;;;23.90;94.00;;;;;;5056540;28;20116;-70
2021/07/05 11:19:53;;;;;;;9.55;7.32;;;23.90;94.10;;;;;;5050524;28;20037;-69
2021/07/05 11:22:29;;;;;;;8.75;6.22;;;23.90;93.80;;;;;;5037061;28;20381;-70
2021/07/05 11:25:10;;;;;;;8.20;6.95;;;23.90;94.10;;;;;;5052666;28;20025;-70
2021/07/05 11:27:47;;;;;;;7.45;5.97;;;23.90;94.20;;;;;;5051155;28;20385;-70
2021/07/05 11:30:14;;;;;;;6.15;5.20;;;24.00;94.30;;;;;;5052861;28;20060;-70
2021/07/05 11:32:43;;;;;;;9.20;5.80;;;24.00;93.90;;;;;;5049149;28;20033;-70
2021/07/05 11:35:29;;;;;;;6.75;5.45;;;24.00;93.70;;;;;;5052672;28;20496;-70
2021/07/05 11:38:01;;;;;;;6.78;5.28;;;24.10;93.80;;;;;;5051673;28;20115;-70
2021/07/05 11:41:05;;;;;;;8.18;4.82;;;24.00;93.60;;;;;;5052610;28;20537;-70
2021/07/05 11:44:26;;;;;;;8.57;5.55;;;24.10;93.50;;;;;;5034425;28;20025;-70
2021/07/05 11:46:42;;;;;;;6.28;4.60;;;24.10;93.40;;;;;;5043244;28;20524;-70
2021/07/05 11:49:25;;;;;;;7.18;4.90;;;24.20;93.60;;;;;;5051924;28;20025;-70
2021/07/05 11:51:54;;;;;;;5.47;4.93;;;24.30;93.80;;;;;;5053039;28;20500;-70
2021/07/05 11:54:26;;;;;;;6.63;5.03;;;24.40;93.90;;;;;;5051825;28;20117;-70
2021/07/05 11:56:55;;;;;;;6.82;4.95;;;24.50;93.80;;;;;;5051621;28;20496;-70
2021/07/05 11:59:27;;;;;;;6.03;5.18;;;24.70;93.30;;;;;;5050609;28;20079;-70
2021/07/05 12:02:10;;;;;;;6.85;4.97;;;24.70;93.10;;;;;;5049571;28;20471;-69
2021/07/05 12:05:04;;;;;;;5.45;4.75;;;24.80;93.10;;;;;;5051160;28;20033;-70
2021/07/05 12:07:29;;;;;;;7.57;5.43;;;24.90;93.10;;;;;;5052715;28;20033;-70
2021/07/05 12:09:55;;;;;;;7.95;5.15;;;25.10;93.00;;;;;;5039345;28;20292;-69
2021/07/05 12:12:22;;;;;;;8.20;6.00;;;25.20;93.00;;;;;;5065504;28;20033;-69
2021/07/05 12:14:50;;;;;;;6.68;5.47;;;25.30;92.40;;;;;;5044870;28;20029;-69
2021/07/05 12:17:18;;;;;;;6.25;5.60;;;25.30;92.40;;;;;;5045865;28;20025;-70
2021/07/05 12:19:45;;;;;;;7.13;4.93;;;25.30;92.10;;;;;;5051865;28;20029;-71
2021/07/05 12:22:17;;;;;;;6.60;4.80;;;25.30;92.30;;;;;;5051049;28;20079;-71
2021/07/05 12:24:47;;;;;;;6.85;5.60;;;25.30;91.80;;;;;;5050539;28;20075;-73
2021/07/05 12:27:15;;;;;;;6.15;4.85;;;25.30;91.60;;;;;;5049992;28;20021;-71
2021/07/05 12:29:52;;;;;;;6.78;5.15;;;25.30;91.60;;;;;;5047453;28;20029;-72
2021/07/05 12:32:33;;;;;;;6.55;5.07;;;25.30;91.50;;;;;;5056292;28;20032;-71
2021/07/05 12:35:00;;;;;;;6.45;5.00;;;25.40;91.60;;;;;;5047533;28;20033;-71
2021/07/05 12:37:32;;;;;;;5.43;4.28;;;25.50;91.70;;;;;;5051921;28;20033;-72
2021/07/05 12:40:16;;;;;;;6.28;4.75;;;25.70;91.50;;;;;;5048043;28;20610;-71
2021/07/05 12:42:43;;;;;;;5.18;3.97;;;25.80;91.40;;;;;;5044651;28;20040;-70
2021/07/05 12:45:13;;;;;;;4.60;4.15;;;25.90;91.20;;;;;;5050949;28;20037;-70
2021/07/05 12:47:48;;;;;;;5.10;4.55;;;25.90;91.10;;;;;;5050563;28;20032;-70
2021/07/05 12:50:16;;;;;;;5.47;4.38;;;26.00;91.00;;;;;;5045569;28;20112;-70
2021/07/05 12:52:59;;;;;;;6.18;4.65;;;26.00;90.90;;;;;;5048406;28;20043;-69
2021/07/05 12:55:24;;;;;;;5.70;4.78;;;26.00;90.50;;;;;;5048066;28;20419;-69
2021/07/05 12:57:54;;;;;;;4.93;4.15;;;26.00;90.10;;;;;;5048582;28;20117;-70
2021/07/05 13:00:24;;;;;;;4.88;4.30;;;26.10;90.50;;;;;;5047111;28;20420;-69
2021/07/05 13:02:52;;;;;;;4.80;4.15;;;26.10;90.10;;;;;;5050601;28;20033;-70
2021/07/05 13:05:22;;;;;;;6.55;4.60;;;26.00;89.70;;;;;;5047829;28;20047;-70
2021/07/05 13:07:56;;;;;;;5.13;4.50;;;26.10;89.80;;;;;;5049607;28;20515;-70
2021/07/05 13:10:31;;;;;;;4.80;3.83;;;26.00;90.00;;;;;;5049552;28;20123;-70
2021/07/05 13:13:03;;;;;;;5.22;4.13;;;26.10;90.00;;;;;;5043750;28;20032;-69
2021/07/05 13:15:36;;;;;;;4.57;3.92;;;26.30;90.00;;;;;;5047645;28;20017;-70
2021/07/05 13:18:20;;;;;;;5.80;3.83;;;26.40;89.10;;;;;;5043611;28;20580;-70
2021/07/05 13:20:55;;;;;;;5.03;3.80;;;26.40;89.20;;;;;;5044445;28;20033;-70
2021/07/05 13:23:40;;;;;;;5.80;3.88;;;26.40;88.70;;;;;;5048001;28;20035;-70
2021/07/05 13:26:07;;;;;;;5.63;4.32;;;26.50;89.20;;;;;;5041300;28;20167;-70
2021/07/05 13:28:44;;;;;;;4.85;3.70;;;26.60;88.30;;;;;;5048942;28;20364;-70
2021/07/05 13:31:10;;;;;;;6.32;4.13;;;26.50;88.90;;;;;;5037187;28;20033;-70
2021/07/05 13:33:35;;;;;;;5.78;3.67;;;26.50;88.40;;;;;;5039818;28;20021;-71
2021/07/05 13:36:03;;;;;;;4.82;4.22;;;26.50;87.80;;;;;;5050505;28;20464;-69
2021/07/05 13:38:31;;;;;;;4.47;4.07;;;26.60;87.00;;;;;;5045349;28;20028;-69
2021/07/05 13:41:00;;;;;;;5.90;3.85;;;26.60;87.10;;;;;;5049341;28;20024;-70
2021/07/05 13:43:26;;;;;;;4.93;3.38;;;26.70;86.80;;;;;;5049040;28;20032;-69
2021/07/05 13:45:55;;;;;;;4.78;4.10;;;26.70;86.60;;;;;;5050497;28;20669;-69
2021/07/05 13:48:22;;;;;;;3.97;3.55;;;26.70;85.90;;;;;;5048357;28;20108;-70
2021/07/05 13:50:52;;;;;;;5.28;3.58;;;26.70;84.10;;;;;;5048353;28;20029;-70
2021/07/05 13:53:28;;;;;;;4.45;3.50;;;26.80;84.80;;;;;;5048372;28;20029;-70
2021/07/05 13:55:55;;;;;;;5.38;3.95;;;26.80;85.80;;;;;;5054230;28;20094;-69
2021/07/05 13:58:24;;;;;;;5.32;3.53;;;26.90;85.20;;;;;;5048415;28;20035;-69